Time;durP1;ratioP1;P1;durP2;ratioP2;P2;SDS_P1;SDS_P2;PMS_P1;PMS_P2;Temp;Humidity;BMP_temperature;BMP_pressure;BME280_temperature;BME280_humidity;BME280_pressure;Samples;Min_cycle;Max_cycle;Signal;HPM_P1;HPM_P2
2022/05/02 00:01:19;;;;;;;14.55;13.25;;;9.90;99.90;;;;;;4941136;29;20031;-91
2022/05/02 00:03:45;;;;;;;15.82;14.25;;;9.90;99.90;;;;;;4933190;29;20039;-91
2022/05/02 00:06:13;;;;;;;14.05;12.95;;;9.90;99.90;;;;;;4922910;29;20492;-92
2022/05/02 00:08:39;;;;;;;14.48;13.10;;;9.90;99.90;;;;;;4928582;29;20365;-91
2022/05/02 00:11:05;;;;;;;14.15;13.05;;;9.90;99.90;;;;;;4933599;29;20028;-92
2022/05/02 00:13:31;;;;;;;15.18;13.25;;;9.90;99.90;;;;;;4934642;29;20031;-92
2022/05/02 00:15:57;;;;;;;14.18;12.70;;;9.90;99.90;;;;;;4932350;29;20030;-91
2022/05/02 00:18:23;;;;;;;14.07;12.88;;;9.90;99.90;;;;;;4930489;29;20024;-90
2022/05/02 00:20:48;;;;;;;14.80;12.27;;;9.90;99.90;;;;;;4930603;29;20035;-93
2022/05/02 00:23:14;;;;;;;14.27;12.98;;;9.90;99.90;;;;;;4931493;29;20036;-91
2022/05/02 00:25:40;;;;;;;13.63;12.25;;;9.90;99.90;;;;;;4933795;29;20042;-91
2022/05/02 00:28:10;;;;;;;14.43;13.15;;;9.90;99.90;;;;;;4934401;29;20040;-91
2022/05/02 00:30:36;;;;;;;13.25;12.18;;;9.90;99.90;;;;;;4930153;29;20028;-92
2022/05/02 00:33:01;;;;;;;13.80;12.75;;;9.90;99.90;;;;;;4924984;29;20035;-91
2022/05/02 00:35:27;;;;;;;12.80;11.80;;;9.90;99.90;;;;;;4940196;29;20027;-92
2022/05/02 00:37:53;;;;;;;12.52;11.27;;;9.90;99.90;;;;;;4922487;29;20176;-92
2022/05/02 00:40:19;;;;;;;13.27;12.18;;;9.90;99.90;;;;;;4933317;29;20167;-91
2022/05/02 00:42:46;;;;;;;10.27;9.30;;;9.90;99.90;;;;;;4934513;29;20476;-91
2022/05/02 00:45:15;;;;;;;11.10;10.00;;;9.90;99.90;;;;;;4932623;29;20032;-92
2022/05/02 00:47:48;;;;;;;12.55;11.30;;;9.90;99.90;;;;;;4937613;29;20106;-92
2022/05/02 00:50:13;;;;;;;11.02;10.13;;;9.90;99.90;;;;;;4934013;29;20034;-91
2022/05/02 00:52:39;;;;;;;11.80;10.80;;;10.00;99.90;;;;;;4938022;29;20035;-91
2022/05/02 00:55:05;;;;;;;9.18;8.38;;;9.90;99.90;;;;;;4936751;29;20111;-91
2022/05/02 00:57:32;;;;;;;11.45;10.27;;;9.90;99.90;;;;;;4936653;29;20090;-91
2022/05/02 00:59:58;;;;;;;9.10;8.18;;;10.00;99.90;;;;;;4953093;29;20377;-91
2022/05/02 01:02:23;;;;;;;12.65;8.40;;;10.00;99.90;;;;;;4937819;29;20038;-91
2022/05/02 01:04:49;;;;;;;9.95;8.15;;;10.00;99.90;;;;;;4937819;29;20036;-91
2022/05/02 01:07:21;;;;;;;10.18;9.20;;;10.00;99.90;;;;;;4937913;29;20015;-91
2022/05/02 01:09:49;;;;;;;9.30;8.48;;;10.00;99.90;;;;;;4933522;29;20035;-91
2022/05/02 01:12:21;;;;;;;9.75;8.98;;;10.00;99.90;;;;;;4951547;29;20468;-91
2022/05/02 01:14:48;;;;;;;10.25;9.35;;;10.00;99.90;;;;;;4937850;29;20028;-91
2022/05/02 01:17:14;;;;;;;9.43;8.52;;;10.00;99.90;;;;;;4937737;29;20507;-91
2022/05/02 01:19:40;;;;;;;10.43;9.52;;;10.00;99.90;;;;;;4938149;29;20063;-92
2022/05/02 01:22:06;;;;;;;10.80;9.07;;;9.90;99.90;;;;;;4925651;29;20718;-91
2022/05/02 01:24:36;;;;;;;10.00;9.10;;;9.90;99.90;;;;;;4937534;29;20027;-91
2022/05/02 01:27:03;;;;;;;9.88;8.88;;;9.90;99.90;;;;;;4935733;29;20114;-91
2022/05/02 01:29:31;;;;;;;10.38;9.48;;;9.90;99.90;;;;;;4932098;29;20032;-92
2022/05/02 01:31:57;;;;;;;8.98;8.20;;;9.90;99.90;;;;;;4928343;29;20043;-91
2022/05/02 01:34:22;;;;;;;9.65;8.80;;;9.90;99.90;;;;;;4943644;29;20039;-91
2022/05/02 01:36:48;;;;;;;10.48;9.40;;;9.80;99.90;;;;;;4934167;29;20032;-91
2022/05/02 01:39:14;;;;;;;9.70;8.63;;;9.80;99.90;;;;;;4937076;29;20039;-92
2022/05/02 01:41:40;;;;;;;9.00;8.10;;;9.80;99.90;;;;;;4938123;29;20394;-92
2022/05/02 01:44:06;;;;;;;13.32;9.45;;;9.80;99.90;;;;;;4936751;29;20040;-91
2022/05/02 01:46:31;;;;;;;11.10;8.13;;;9.80;99.90;;;;;;4937104;29;20124;-90
2022/05/02 01:48:58;;;;;;;9.70;8.80;;;9.70;99.90;;;;;;4935983;29;20048;-91
2022/05/02 01:51:24;;;;;;;9.55;8.60;;;9.70;99.90;;;;;;4936831;29;20416;-91
2022/05/02 01:53:50;;;;;;;9.77;8.80;;;9.70;99.90;;;;;;4937298;29;20051;-92
2022/05/02 01:56:15;;;;;;;9.68;8.77;;;9.70;99.90;;;;;;4935146;29;20039;-91
2022/05/02 01:58:41;;;;;;;9.73;8.90;;;9.70;99.90;;;;;;4936782;28;20102;-91
2022/05/02 02:01:07;;;;;;;9.98;9.05;;;9.70;99.90;;;;;;4937098;28;20103;-91
2022/05/02 02:03:32;;;;;;;9.68;8.88;;;9.60;99.90;;;;;;4936573;28;20447;-91
2022/05/02 02:05:58;;;;;;;14.27;9.02;;;9.60;99.90;;;;;;4933572;29;20094;-92
2022/05/02 02:08:30;;;;;;;9.07;7.90;;;9.60;99.90;;;;;;4951230;29;20028;-91
2022/05/02 02:11:01;;;;;;;10.88;7.57;;;9.60;99.90;;;;;;4936008;29;20035;-92
2022/05/02 02:13:27;;;;;;;9.93;9.10;;;9.50;99.90;;;;;;4936222;29;20527;-91
2022/05/02 02:15:53;;;;;;;8.75;7.85;;;9.50;99.90;;;;;;4933529;29;20051;-91
2022/05/02 02:18:19;;;;;;;12.05;8.82;;;9.40;99.90;;;;;;4934374;29;20020;-92
2022/05/02 02:20:47;;;;;;;9.02;8.25;;;9.40;99.90;;;;;;4935574;29;20075;-92
2022/05/02 02:23:14;;;;;;;9.82;8.95;;;9.30;99.90;;;;;;4936201;29;20064;-92
2022/05/02 02:25:40;;;;;;;10.15;9.25;;;9.30;99.90;;;;;;4927546;29;20119;-91
2022/05/02 02:28:07;;;;;;;11.05;10.15;;;9.30;99.90;;;;;;4938031;29;20503;-91
2022/05/02 02:30:32;;;;;;;10.30;9.40;;;9.20;99.90;;;;;;4942948;29;20036;-91
2022/05/02 02:32:59;;;;;;;10.63;9.77;;;9.10;99.90;;;;;;4936834;29;20031;-91
2022/05/02 02:35:25;;;;;;;12.90;10.90;;;9.10;99.90;;;;;;4934364;29;20496;-90
2022/05/02 02:37:51;;;;;;;11.00;9.93;;;9.10;99.90;;;;;;4934778;29;20028;-91
2022/05/02 02:40:17;;;;;;;11.35;10.35;;;9.00;99.90;;;;;;4934932;29;20021;-92
2022/05/02 02:42:44;;;;;;;10.98;10.07;;;9.00;99.90;;;;;;4935992;29;20122;-92
2022/05/02 02:45:10;;;;;;;14.77;11.48;;;8.90;99.90;;;;;;4934933;29;20024;-92
2022/05/02 02:47:36;;;;;;;10.98;10.07;;;8.80;99.90;;;;;;4935180;29;20027;-92
2022/05/02 02:50:02;;;;;;;11.68;10.57;;;8.80;99.90;;;;;;4928905;29;20028;-92
2022/05/02 02:52:27;;;;;;;11.75;10.25;;;8.70;99.90;;;;;;4924000;29;20400;-92
2022/05/02 02:54:53;;;;;;;13.43;9.75;;;8.70;99.90;;;;;;4934563;29;20035;-91
2022/05/02 02:57:19;;;;;;;11.82;10.27;;;8.70;99.90;;;;;;4940685;28;20032;-91
2022/05/02 02:59:44;;;;;;;10.82;9.73;;;8.60;99.90;;;;;;4935219;29;20051;-91
2022/05/02 03:02:10;;;;;;;10.32;9.32;;;8.60;99.90;;;;;;4934628;29;20051;-92
2022/05/02 03:07:23;;;;;;;14.73;9.88;;;8.60;99.90;;;;;;4930871;29;20038;-92
2022/05/02 03:09:49;;;;;;;11.77;10.68;;;8.50;99.90;;;;;;4937556;29;20030;-91
2022/05/02 03:12:14;;;;;;;11.52;10.43;;;8.50;99.90;;;;;;4934268;29;20399;-92
2022/05/02 03:14:40;;;;;;;11.68;10.48;;;8.40;99.90;;;;;;4936336;29;20030;-91
2022/05/02 03:17:06;;;;;;;12.57;11.23;;;8.30;99.90;;;;;;4934722;29;20042;-91
2022/05/02 03:19:31;;;;;;;11.27;10.25;;;8.20;99.90;;;;;;4931232;29;20032;-91
2022/05/02 03:21:57;;;;;;;11.63;10.43;;;8.10;99.90;;;;;;4941410;29;20504;-92
2022/05/02 03:24:22;;;;;;;12.27;11.27;;;8.10;99.90;;;;;;4953995;28;20582;-92
2022/05/02 03:26:48;;;;;;;13.75;10.32;;;8.00;99.90;;;;;;4953757;29;20027;-91
2022/05/02 03:29:14;;;;;;;13.13;11.90;;;7.90;99.90;;;;;;4936262;28;20039;-91
2022/05/02 03:31:39;;;;;;;14.93;12.05;;;7.80;99.90;;;;;;4933766;29;20028;-92
2022/05/02 03:34:05;;;;;;;12.40;10.82;;;7.80;99.90;;;;;;4933954;28;20032;-92
2022/05/02 03:36:31;;;;;;;13.23;12.13;;;7.80;99.90;;;;;;4952920;28;20077;-91
2022/05/02 03:38:56;;;;;;;15.00;13.77;;;7.70;99.90;;;;;;4950685;29;20028;-91
2022/05/02 03:41:22;;;;;;;13.70;12.38;;;7.70;99.90;;;;;;4953490;29;20035;-91
2022/05/02 03:43:48;;;;;;;14.52;12.73;;;7.70;99.90;;;;;;4950973;28;20171;-92
2022/05/02 03:46:14;;;;;;;11.63;10.73;;;7.60;99.90;;;;;;4954354;28;20019;-91
2022/05/02 03:48:39;;;;;;;12.50;11.50;;;7.60;99.90;;;;;;4952733;29;20091;-92
2022/05/02 03:51:05;;;;;;;12.65;10.68;;;7.50;99.90;;;;;;4954856;29;20023;-91
2022/05/02 03:53:30;;;;;;;12.93;11.68;;;7.50;99.90;;;;;;4957628;28;20794;-92
2022/05/02 03:55:56;;;;;;;13.63;12.27;;;7.30;99.90;;;;;;4953071;28;20118;-92
2022/05/02 03:58:22;;;;;;;15.23;12.27;;;7.30;99.90;;;;;;4952354;29;20418;-91
2022/05/02 04:00:48;;;;;;;16.60;14.82;;;7.30;99.90;;;;;;4951920;28;20023;-91
2022/05/02 04:03:14;;;;;;;13.27;11.40;;;7.30;99.90;;;;;;4952336;28;20027;-91
2022/05/02 04:05:40;;;;;;;12.38;11.13;;;7.40;99.90;;;;;;4951235;28;20083;-91
2022/05/02 04:08:06;;;;;;;14.00;10.57;;;7.40;99.90;;;;;;4967964;28;20031;-91
2022/05/02 04:10:32;;;;;;;11.52;10.43;;;7.50;99.90;;;;;;4953024;28;20035;-92
2022/05/02 04:12:57;;;;;;;9.40;8.52;;;7.50;99.90;;;;;;4943551;28;20019;-92
2022/05/02 04:15:23;;;;;;;10.65;9.68;;;7.50;99.90;;;;;;4953613;28;20503;-91
2022/05/02 04:17:48;;;;;;;12.55;9.75;;;7.50;99.90;;;;;;4949112;28;20028;-91
2022/05/02 04:20:14;;;;;;;11.20;10.10;;;7.50;99.90;;;;;;4951685;28;20059;-92
2022/05/02 04:22:41;;;;;;;10.77;9.98;;;7.50;99.90;;;;;;4953979;28;20415;-91
2022/05/02 04:25:07;;;;;;;10.88;9.77;;;7.50;99.90;;;;;;4954539;28;20376;-91
2022/05/02 04:27:34;;;;;;;10.35;9.35;;;7.50;99.90;;;;;;4953385;28;20042;-92
2022/05/02 04:30:00;;;;;;;12.05;8.80;;;7.50;99.90;;;;;;4949653;29;20027;-92
2022/05/02 04:32:26;;;;;;;8.85;8.00;;;7.50;99.90;;;;;;4951829;29;20039;-92
2022/05/02 04:34:58;;;;;;;8.40;7.70;;;7.50;99.90;;;;;;4946133;29;20483;-92
2022/05/02 04:37:23;;;;;;;9.48;8.63;;;7.50;99.90;;;;;;4947094;29;20115;-92
2022/05/02 04:39:49;;;;;;;10.15;8.60;;;7.50;99.90;;;;;;4954459;28;20055;-92
2022/05/02 04:42:14;;;;;;;10.30;7.30;;;7.50;99.90;;;;;;4953494;28;20129;-92
2022/05/02 04:44:40;;;;;;;8.25;7.45;;;7.60;99.90;;;;;;4952281;28;20041;-92
2022/05/02 04:47:06;;;;;;;9.02;8.13;;;7.60;99.90;;;;;;4968198;28;20447;-92
2022/05/02 04:49:32;;;;;;;9.93;9.07;;;7.70;99.90;;;;;;4948737;29;20052;-92
2022/05/02 04:51:57;;;;;;;10.13;9.13;;;7.70;99.90;;;;;;4940402;29;20055;-93
2022/05/02 04:54:23;;;;;;;9.40;8.60;;;7.80;99.90;;;;;;4952209;28;20070;-92
2022/05/02 04:56:49;;;;;;;8.32;7.53;;;7.90;99.90;;;;;;4952377;29;20038;-92
2022/05/02 04:59:14;;;;;;;7.25;6.65;;;8.00;99.90;;;;;;4952455;28;20034;-91
2022/05/02 05:01:40;;;;;;;10.35;7.22;;;8.20;99.90;;;;;;4954492;28;20059;-92
2022/05/02 05:04:05;;;;;;;9.50;5.90;;;8.60;99.90;;;;;;4954064;28;20047;-92
2022/05/02 05:06:31;;;;;;;6.03;5.43;;;9.30;99.90;;;;;;4963659;28;20024;-92
2022/05/02 05:08:57;;;;;;;5.20;4.72;;;10.00;99.90;;;;;;4955255;28;20023;-93
2022/05/02 05:11:46;;;;;;;5.50;5.00;;;10.80;99.90;;;;;;4954031;28;20083;-92
2022/05/02 05:17:50;;;;;;;5.72;4.40;;;12.70;99.90;;;;;;4954389;28;20062;-93
2022/05/02 05:20:40;;;;;;;5.80;5.30;;;13.60;99.90;;;;;;4952055;29;20027;-93
2022/05/02 05:23:23;;;;;;;7.38;4.50;;;14.60;99.90;;;;;;4967784;28;20039;-92
2022/05/02 05:26:15;;;;;;;9.00;4.82;;;15.30;99.90;;;;;;4938043;29;20036;-93
2022/05/02 05:29:15;;;;;;;4.75;4.35;;;15.90;99.90;;;;;;4933580;29;20043;-92
2022/05/02 05:31:41;;;;;;;5.22;4.72;;;16.30;99.90;;;;;;4968760;28;20110;-92
2022/05/02 05:34:25;;;;;;;4.78;4.18;;;16.70;99.90;;;;;;4953615;28;20150;-93
2022/05/02 05:37:07;;;;;;;6.03;5.30;;;17.00;99.90;;;;;;4969828;28;20566;-92
2022/05/02 05:40:03;;;;;;;6.07;5.30;;;17.50;99.90;;;;;;4957215;28;20051;-93
2022/05/02 05:43:06;;;;;;;9.25;6.20;;;17.80;99.90;;;;;;4948693;28;20027;-93
2022/05/02 05:45:50;;;;;;;6.10;5.50;;;18.00;99.30;;;;;;4939037;29;20031;-92
2022/05/02 05:48:26;;;;;;;15.65;7.95;;;18.20;99.90;;;;;;4971711;28;20034;-94
2022/05/02 05:51:12;;;;;;;8.43;6.95;;;18.40;94.20;;;;;;4967841;28;20051;-93
2022/05/02 05:53:58;;;;;;;8.63;7.65;;;18.70;95.10;;;;;;4968287;28;20102;-93
2022/05/02 05:56:40;;;;;;;6.32;5.72;;;19.10;82.20;;;;;;4948198;29;20035;-93
2022/05/02 05:59:16;;;;;;;6.72;6.13;;;19.50;76.20;;;;;;4954023;28;20047;-93
2022/05/02 06:02:05;;;;;;;8.95;7.43;;;19.60;74.70;;;;;;4967715;28;20027;-93
2022/05/02 06:04:34;;;;;;;9.23;7.80;;;19.60;74.90;;;;;;4968817;28;20039;-93
2022/05/02 06:07:00;;;;;;;10.60;7.57;;;20.20;77.00;;;;;;4956958;28;20106;-93
2022/05/02 06:09:30;;;;;;;8.27;6.50;;;20.40;71.10;;;;;;4955183;28;20055;-94
2022/05/02 06:11:59;;;;;;;6.65;5.82;;;20.70;71.40;;;;;;4960466;28;20139;-93
2022/05/02 06:14:33;;;;;;;8.38;6.47;;;21.20;66.60;;;;;;4964069;28;20035;-93
2022/05/02 06:19:47;;;;;;;9.98;5.85;;;22.20;62.90;;;;;;4956339;28;20111;-93
2022/05/02 06:22:16;;;;;;;9.88;6.35;;;22.30;61.10;;;;;;4956085;28;20063;-92
2022/05/02 06:24:45;;;;;;;8.18;5.72;;;22.60;58.10;;;;;;4959523;28;20046;-93
2022/05/02 06:27:11;;;;;;;6.93;5.38;;;22.80;56.00;;;;;;4967370;28;20070;-92
2022/05/02 06:29:39;;;;;;;6.88;6.18;;;22.70;58.00;;;;;;4964600;28;20023;-92
2022/05/02 06:32:10;;;;;;;6.43;5.70;;;22.80;56.60;;;;;;4957591;29;20038;-91
2022/05/02 06:34:37;;;;;;;7.30;5.85;;;22.90;56.90;;;;;;4964597;28;20023;-93
2022/05/02 06:37:09;;;;;;;9.75;6.57;;;23.20;55.70;;;;;;4958094;29;20090;-92
2022/05/02 06:39:52;;;;;;;6.47;5.88;;;23.50;56.00;;;;;;4954559;28;20594;-91
2022/05/02 06:42:39;;;;;;;11.93;6.82;;;24.10;54.20;;;;;;4955829;28;20075;-93
2022/05/02 06:45:22;;;;;;;7.82;7.03;;;24.50;53.90;;;;;;4955521;28;20038;-91
2022/05/02 06:48:15;;;;;;;7.45;6.75;;;24.40;55.10;;;;;;4959476;28;20526;-94
2022/05/02 06:50:48;;;;;;;7.60;6.35;;;25.10;52.30;;;;;;4935283;29;20027;-93
2022/05/02 06:53:32;;;;;;;6.78;5.50;;;25.80;51.10;;;;;;4967023;28;20020;-92
2022/05/02 06:56:28;;;;;;;5.72;4.45;;;26.40;50.20;;;;;;4950593;29;20027;-93
2022/05/02 06:59:25;;;;;;;8.43;4.28;;;26.40;49.60;;;;;;4966786;28;20036;-92
2022/05/02 07:02:13;;;;;;;5.50;3.90;;;27.00;48.30;;;;;;4955059;29;20043;-92
2022/05/02 07:04:52;;;;;;;5.53;3.75;;;26.50;49.10;;;;;;4944730;29;20391;-92
2022/05/02 07:07:46;;;;;;;5.25;3.53;;;26.40;48.60;;;;;;4950711;29;20027;-92
2022/05/02 07:10:28;;;;;;;16.05;5.57;;;26.70;49.60;;;;;;4955419;28;20046;-93
2022/05/02 07:13:00;;;;;;;6.20;4.68;;;26.10;49.10;;;;;;4953987;28;20045;-92
2022/05/02 07:15:43;;;;;;;7.15;5.10;;;26.40;50.10;;;;;;4969947;28;20035;-92
2022/05/02 07:18:32;;;;;;;5.43;4.93;;;26.20;49.20;;;;;;4956851;28;20023;-92
2022/05/02 07:21:32;;;;;;;6.13;4.53;;;25.60;49.20;;;;;;4949373;29;20023;-92
2022/05/02 07:24:26;;;;;;;5.43;4.75;;;25.90;50.60;;;;;;4954779;28;20047;-92
2022/05/02 07:27:34;;;;;;;5.80;4.55;;;26.20;49.10;;;;;;4938255;29;20066;-92
2022/05/02 07:30:00;;;;;;;15.30;4.97;;;26.60;50.10;;;;;;4954196;29;20093;-93
2022/05/02 07:32:27;;;;;;;8.52;4.75;;;27.30;47.40;;;;;;4954086;29;20035;-92
2022/05/02 07:34:55;;;;;;;6.13;4.28;;;27.80;43.80;;;;;;4954189;28;20038;-90
2022/05/02 07:37:22;;;;;;;6.32;4.55;;;28.20;43.60;;;;;;4954056;29;20028;-90
2022/05/02 07:39:49;;;;;;;5.97;4.00;;;28.20;42.40;;;;;;4955281;28;20047;-89
2022/05/02 07:42:15;;;;;;;5.20;3.90;;;28.40;47.20;;;;;;4953213;28;20023;-91
2022/05/02 07:44:43;;;;;;;5.60;4.15;;;28.30;44.10;;;;;;4953288;28;20027;-93
2022/05/02 07:47:11;;;;;;;9.13;4.28;;;27.50;46.10;;;;;;4964397;28;20024;-92
2022/05/02 07:49:43;;;;;;;6.63;4.93;;;27.30;46.40;;;;;;4947271;28;20840;-93
2022/05/02 07:52:11;;;;;;;4.28;3.88;;;27.70;47.10;;;;;;4949350;28;20522;-93
2022/05/02 07:54:38;;;;;;;5.00;3.55;;;28.30;45.40;;;;;;4954790;28;20544;-92
2022/05/02 07:57:05;;;;;;;3.90;3.42;;;29.20;44.30;;;;;;4954808;28;20467;-92
2022/05/02 07:59:35;;;;;;;5.35;3.00;;;29.50;43.70;;;;;;4958527;28;20503;-92
2022/05/02 08:02:00;;;;;;;4.75;3.55;;;30.10;39.60;;;;;;4953518;28;20024;-91
2022/05/02 08:04:27;;;;;;;4.05;2.90;;;30.60;41.90;;;;;;4953741;28;20034;-91
2022/05/02 08:06:56;;;;;;;4.05;3.65;;;31.10;41.30;;;;;;4955820;28;20431;-93
2022/05/02 08:09:55;;;;;;;5.70;3.55;;;30.50;38.30;;;;;;4944834;29;20034;-91
2022/05/02 08:12:31;;;;;;;4.25;3.15;;;30.70;40.10;;;;;;4952568;28;20034;-92
2022/05/02 08:15:20;;;;;;;4.63;3.30;;;30.90;40.60;;;;;;4954581;28;20027;-92
2022/05/02 08:18:04;;;;;;;4.55;3.30;;;31.40;40.30;;;;;;4937623;28;20050;-91
2022/05/02 08:20:29;;;;;;;4.45;3.45;;;31.60;41.20;;;;;;4950081;28;20381;-92
2022/05/02 08:29:33;;;;;;;5.43;3.22;;;31.50;37.50;;;;;;4935358;28;20058;-93
2022/05/02 08:32:22;;;;;;;5.50;3.42;;;32.40;37.60;;;;;;4953289;28;20676;-92
2022/05/02 08:35:16;;;;;;;3.17;2.90;;;32.50;36.90;;;;;;4953792;28;20154;-92
2022/05/02 08:38:07;;;;;;;4.35;2.92;;;32.40;35.20;;;;;;4933000;29;20114;-93
2022/05/02 08:40:42;;;;;;;4.72;3.25;;;32.80;36.20;;;;;;4937111;29;20040;-92
2022/05/02 08:43:32;;;;;;;3.30;2.97;;;32.80;36.50;;;;;;4939852;28;20033;-92
2022/05/02 08:46:27;;;;;;;5.97;3.10;;;32.90;38.50;;;;;;4948122;28;20488;-91
2022/05/02 08:52:09;;;;;;;3.60;3.10;;;31.40;35.80;;;;;;4951560;28;20034;-91
2022/05/02 08:54:44;;;;;;;4.35;3.88;;;31.70;36.20;;;;;;4973413;28;20109;-91
2022/05/02 08:57:34;;;;;;;5.35;3.42;;;31.60;34.80;;;;;;4953225;28;20110;-90
2022/05/02 09:00:07;;;;;;;4.38;3.33;;;31.80;34.90;;;;;;4954044;29;20027;-92
2022/05/02 09:03:10;;;;;;;3.78;3.05;;;32.00;36.20;;;;;;4956463;28;20108;-91
2022/05/02 09:05:44;;;;;;;3.30;3.00;;;32.70;37.70;;;;;;4952407;29;20083;-89
2022/05/02 09:08:28;;;;;;;4.95;3.15;;;33.30;37.40;;;;;;4956918;28;20027;-90
2022/05/02 09:11:12;;;;;;;4.63;2.92;;;33.50;35.50;;;;;;4955802;29;21155;-90
2022/05/02 09:13:47;;;;;;;5.35;3.17;;;33.60;37.30;;;;;;4955703;28;20079;-91
2022/05/02 09:16:13;;;;;;;4.22;3.30;;;33.40;35.10;;;;;;4957572;28;20110;-91
2022/05/02 09:19:17;;;;;;;3.47;3.17;;;33.00;34.00;;;;;;4945829;28;20114;-91
2022/05/02 09:22:14;;;;;;;3.33;2.95;;;32.70;38.90;;;;;;4956929;29;20128;-90
2022/05/02 09:25:03;;;;;;;8.38;3.50;;;32.70;38.10;;;;;;4962540;28;20499;-91
2022/05/02 09:27:35;;;;;;;10.13;3.30;;;32.50;34.30;;;;;;4959428;28;20031;-91
2022/05/02 09:30:25;;;;;;;6.22;3.47;;;31.80;36.80;;;;;;4956851;29;20051;-90
2022/05/02 09:33:03;;;;;;;4.05;3.22;;;31.20;33.30;;;;;;4947867;28;20082;-90
2022/05/02 09:35:32;;;;;;;4.28;3.72;;;30.40;33.20;;;;;;4958940;28;20023;-91
2022/05/02 09:38:17;;;;;;;9.07;3.60;;;29.30;34.20;;;;;;4960112;28;20030;-91
2022/05/02 09:40:43;;;;;;;3.63;3.15;;;28.10;39.50;;;;;;4961440;28;20027;-91
2022/05/02 09:49:36;;;;;;;4.72;3.78;;;27.30;39.30;;;;;;4953612;28;20504;-90
2022/05/02 09:52:04;;;;;;;4.82;3.50;;;26.40;40.30;;;;;;4956109;28;20119;-90
2022/05/02 09:58:17;;;;;;;5.50;4.13;;;24.00;42.20;;;;;;4956741;28;20074;-91
2022/05/02 10:01:07;;;;;;;4.57;4.00;;;23.90;42.90;;;;;;4955786;28;20098;-90
2022/05/02 10:03:40;;;;;;;5.65;4.60;;;23.90;46.30;;;;;;4954699;28;20526;-90
2022/05/02 10:06:28;;;;;;;5.18;3.85;;;24.70;45.00;;;;;;4956658;28;20031;-90
2022/05/02 10:09:02;;;;;;;5.10;2.88;;;25.50;44.40;;;;;;4956355;29;20031;-90
2022/05/02 10:11:48;;;;;;;5.78;3.75;;;26.90;46.60;;;;;;4960474;28;20118;-91
2022/05/02 10:14:42;;;;;;;5.25;3.63;;;28.00;45.00;;;;;;4954579;28;20047;-91
2022/05/02 10:17:17;;;;;;;6.53;3.47;;;28.80;41.70;;;;;;4954416;28;20156;-90
2022/05/02 10:20:24;;;;;;;6.15;3.45;;;29.40;42.30;;;;;;4956462;28;20118;-90
2022/05/02 10:23:24;;;;;;;3.97;3.53;;;29.90;38.70;;;;;;4905869;29;20055;-91
2022/05/02 10:26:01;;;;;;;5.03;4.18;;;30.80;37.80;;;;;;4956978;28;20039;-91
2022/05/02 10:28:48;;;;;;;4.20;3.50;;;27.90;34.80;;;;;;4956856;28;20057;-88
2022/05/02 10:31:20;;;;;;;3.92;3.63;;;25.70;38.00;;;;;;4951887;28;20035;-90
2022/05/02 10:33:49;;;;;;;4.22;3.60;;;24.20;41.80;;;;;;4955773;28;20106;-90
2022/05/02 10:36:18;;;;;;;4.68;4.25;;;24.00;42.10;;;;;;4950873;28;20028;-89
2022/05/02 10:38:58;;;;;;;5.18;3.90;;;24.70;47.80;;;;;;4961173;28;20030;-91
2022/05/02 10:41:51;;;;;;;3.92;3.47;;;26.10;45.50;;;;;;4940613;29;20032;-90
2022/05/02 10:44:18;;;;;;;5.38;3.28;;;27.70;43.10;;;;;;4944410;28;20107;-90
2022/05/02 10:46:47;;;;;;;4.60;3.35;;;28.60;41.60;;;;;;4945083;29;20059;-90
2022/05/02 10:49:26;;;;;;;5.60;3.63;;;29.20;38.00;;;;;;4955212;28;20034;-90
2022/05/02 10:52:01;;;;;;;3.90;3.60;;;29.00;37.50;;;;;;4952588;29;20427;-90
2022/05/02 10:54:55;;;;;;;3.90;3.60;;;28.50;37.20;;;;;;4947072;28;20027;-90
2022/05/02 10:57:30;;;;;;;3.90;3.40;;;28.40;40.20;;;;;;4919652;28;20046;-89
2022/05/02 11:00:02;;;;;;;4.38;3.90;;;27.50;39.40;;;;;;4953669;29;20023;-90
2022/05/02 11:02:47;;;;;;;5.18;3.60;;;26.20;39.30;;;;;;4953508;28;20062;-89
2022/05/02 11:05:15;;;;;;;4.45;4.03;;;24.80;40.10;;;;;;4953775;29;20119;-90
2022/05/02 11:08:07;;;;;;;5.72;3.90;;;25.20;43.00;;;;;;4954672;28;20058;-90
2022/05/02 11:10:42;;;;;;;;;;;26.10;43.70;;;;;;4951932;28;20420;-90
2022/05/02 11:13:11;;;;;;;4.03;3.33;;;26.60;41.00;;;;;;4954778;28;19961;-89
2022/05/02 11:16:05;;;;;;;5.40;4.13;;;27.00;45.10;;;;;;4953860;28;20028;-90
2022/05/02 11:21:34;;;;;;;4.60;3.30;;;26.90;44.70;;;;;;4958063;28;20131;-91
2022/05/02 11:24:17;;;;;;;3.97;3.67;;;26.10;40.60;;;;;;4955332;28;20031;-91
2022/05/02 11:26:49;;;;;;;4.13;3.70;;;25.50;42.50;;;;;;4934460;29;20040;-90
2022/05/02 11:29:46;;;;;;;7.50;3.78;;;25.20;46.30;;;;;;4936185;29;20578;-91
2022/05/02 11:32:59;;;;;;;3.92;3.63;;;25.40;44.70;;;;;;4937164;29;20024;-90
2022/05/02 11:35:30;;;;;;;5.13;3.80;;;25.40;43.90;;;;;;4938014;29;20031;-91
2022/05/02 11:38:14;;;;;;;4.43;4.13;;;25.20;45.50;;;;;;4938009;28;20372;-91
2022/05/02 11:40:50;;;;;;;8.23;4.30;;;24.00;43.70;;;;;;4942386;28;20042;-90
2022/05/02 11:43:21;;;;;;;4.47;3.70;;;23.70;46.30;;;;;;4935863;28;20031;-90
2022/05/02 11:46:26;;;;;;;4.10;3.80;;;23.60;47.00;;;;;;4940448;29;20055;-92
2022/05/02 11:49:10;;;;;;;4.45;3.55;;;23.20;48.40;;;;;;4938688;29;20563;-93
2022/05/02 11:51:53;;;;;;;6.63;4.35;;;23.30;50.30;;;;;;4931541;29;20040;-92
2022/05/02 11:54:27;;;;;;;4.30;3.65;;;23.20;47.40;;;;;;4941538;28;20480;-93
2022/05/02 11:57:17;;;;;;;6.97;4.30;;;23.00;46.80;;;;;;4936979;29;20579;-93
2022/05/02 12:00:03;;;;;;;12.30;4.50;;;22.80;49.70;;;;;;4939807;29;20499;-91
2022/05/02 12:02:41;;;;;;;12.65;4.30;;;22.30;49.30;;;;;;4939591;29;20484;-93
2022/05/02 12:05:13;;;;;;;5.28;4.32;;;22.00;49.70;;;;;;4969666;28;20151;-95
2022/05/02 12:07:52;;;;;;;4.85;3.88;;;21.90;50.10;;;;;;4967324;28;20046;-93
2022/05/02 12:10:19;;;;;;;6.20;4.22;;;21.60;52.90;;;;;;4966564;28;20039;-94
2022/05/02 12:12:50;;;;;;;4.90;4.07;;;21.40;51.00;;;;;;4968712;28;20028;-93
2022/05/02 12:15:17;;;;;;;4.82;4.07;;;21.00;49.20;;;;;;4950169;29;20023;-95
2022/05/02 12:17:54;;;;;;;4.32;3.75;;;20.90;49.50;;;;;;4956329;28;20020;-96
2022/05/02 12:20:25;;;;;;;4.10;3.75;;;21.00;50.40;;;;;;4955585;28;20039;-95
2022/05/02 12:23:26;;;;;;;7.10;4.07;;;21.00;52.20;;;;;;4968797;28;20059;-96
2022/05/02 12:25:56;;;;;;;5.03;4.63;;;21.00;52.60;;;;;;4974436;28;20019;-95
2022/05/02 12:28:43;;;;;;;7.32;4.18;;;20.90;53.90;;;;;;4955614;28;20032;-93
2022/05/02 12:31:14;;;;;;;10.15;4.70;;;20.60;55.60;;;;;;4959355;28;20043;-95
2022/05/02 12:33:43;;;;;;;4.75;4.32;;;20.50;55.40;;;;;;4975169;28;20055;-93
2022/05/02 12:36:17;;;;;;;6.88;4.45;;;20.40;52.70;;;;;;4986156;28;20020;-96
2022/05/02 12:39:05;;;;;;;4.85;4.25;;;20.40;53.10;;;;;;4974992;28;20051;-94
2022/05/02 12:41:49;;;;;;;4.65;4.07;;;20.50;52.80;;;;;;4973701;28;20116;-95
2022/05/02 12:44:16;;;;;;;6.40;4.75;;;20.80;53.20;;;;;;4971378;28;20028;-95
2022/05/02 12:46:48;;;;;;;4.60;4.22;;;20.90;53.40;;;;;;4971909;28;20050;-95
2022/05/02 12:49:29;;;;;;;7.10;4.50;;;20.80;52.70;;;;;;4969489;29;20031;-94
2022/05/02 12:51:56;;;;;;;5.13;3.97;;;20.90;53.40;;;;;;4972324;28;20034;-95
2022/05/02 12:54:26;;;;;;;5.20;3.60;;;21.10;53.60;;;;;;4973990;28;20030;-94
2022/05/02 13:02:40;;;;;;;5.63;4.28;;;21.80;51.00;;;;;;4971984;28;20082;-94
2022/05/02 13:05:16;;;;;;;5.20;4.43;;;21.90;50.00;;;;;;4985237;28;20032;-94
2022/05/02 13:07:54;;;;;;;4.15;3.78;;;22.00;50.90;;;;;;4977923;28;20044;-95
2022/05/02 13:10:26;;;;;;;4.20;3.28;;;22.40;52.30;;;;;;4989065;28;20062;-95
2022/05/02 13:13:12;;;;;;;6.47;4.75;;;22.40;48.50;;;;;;4973242;28;20043;-95
2022/05/02 13:15:48;;;;;;;3.90;3.55;;;22.50;49.80;;;;;;4971213;28;20018;-94
2022/05/02 13:18:18;;;;;;;4.20;3.80;;;22.50;50.70;;;;;;4988910;28;20033;-93
2022/05/02 13:21:00;;;;;;;5.00;3.58;;;22.80;47.90;;;;;;4971261;28;20050;-93
2022/05/02 13:23:40;;;;;;;6.20;3.80;;;22.90;49.60;;;;;;4969180;28;20083;-93
2022/05/02 13:26:33;;;;;;;4.20;3.40;;;23.70;50.10;;;;;;4972153;28;20059;-96
2022/05/02 13:29:18;;;;;;;5.95;4.13;;;24.00;47.10;;;;;;4971306;28;20031;-95
2022/05/02 13:31:44;;;;;;;4.10;3.72;;;23.90;48.90;;;;;;4963573;28;20023;-92
2022/05/02 13:34:34;;;;;;;4.97;3.35;;;24.20;47.90;;;;;;4967763;28;20035;-92
2022/05/02 13:37:43;;;;;;;4.10;3.80;;;24.40;48.40;;;;;;4975635;28;20039;-96
2022/05/02 13:40:11;;;;;;;3.30;3.00;;;24.80;46.90;;;;;;4967663;28;20058;-93
2022/05/02 13:42:53;;;;;;;5.30;4.00;;;25.00;48.40;;;;;;4987285;28;20032;-92
2022/05/02 13:45:35;;;;;;;4.03;3.72;;;25.10;46.40;;;;;;4973835;28;20038;-94
2022/05/02 13:48:19;;;;;;;5.07;3.83;;;24.70;45.60;;;;;;4980386;28;20030;-96
2022/05/02 13:50:57;;;;;;;7.05;4.05;;;24.60;45.50;;;;;;4943553;28;20011;-94
2022/05/02 13:53:43;;;;;;;4.20;3.83;;;24.30;46.10;;;;;;4974036;28;20066;-91
2022/05/02 13:56:21;;;;;;;4.68;4.28;;;23.60;47.50;;;;;;4976552;28;20028;-95
2022/05/02 13:59:15;;;;;;;6.55;4.18;;;23.30;52.20;;;;;;4965123;28;20050;-94